createdAt,value
2019-04-11T00:00:35.362Z,61.70
2019-04-11T00:03:05.137Z,61.70
2019-04-11T00:05:35.035Z,61.90
2019-04-11T00:08:05.837Z,62.00
2019-04-11T00:10:35.551Z,61.80
2019-04-11T00:13:17.095Z,62.20
2019-04-11T00:15:37.042Z,62.70
2019-04-11T00:18:06.786Z,62.80
2019-04-11T00:20:36.178Z,62.70
2019-04-11T00:23:08.040Z,62.50
2019-04-11T00:25:37.824Z,62.70
2019-04-11T00:28:07.795Z,62.90
2019-04-11T00:30:37.328Z,62.70
2019-04-11T00:33:07.792Z,63.00
2019-04-11T00:35:37.323Z,63.20
2019-04-11T00:38:07.646Z,62.80
2019-04-11T00:40:37.433Z,63.30
2019-04-11T00:59:47.243Z,64.80
2019-04-11T01:02:17.609Z,64.50
2019-04-11T01:04:47.254Z,64.60
2019-04-11T01:07:16.606Z,64.40
2019-04-11T01:09:45.885Z,64.20
2019-04-11T01:12:16.462Z,64.10
2019-04-11T01:14:46.915Z,64.30
2019-04-11T01:17:16.980Z,64.60
2019-04-11T01:19:46.876Z,65.00
2019-04-11T01:22:16.266Z,64.70
2019-04-11T01:24:46.066Z,64.10
2019-04-11T01:27:16.095Z,64.70
2019-04-11T01:29:45.554Z,64.80
2019-04-11T01:32:15.944Z,64.80
2019-04-11T01:34:45.672Z,65.10
2019-04-11T01:37:15.535Z,65.10
2019-04-11T01:39:53.627Z,64.70
2019-04-11T01:42:23.294Z,64.60
2019-04-11T01:44:52.734Z,65.30
2019-04-11T01:47:39.978Z,65.40
2019-04-11T01:50:10.592Z,65.20
2019-04-11T01:52:39.970Z,65.00
2019-04-11T01:55:10.273Z,64.90
2019-04-11T01:57:40.259Z,65.80
2019-04-11T02:00:12.332Z,65.60
2019-04-11T02:02:46.531Z,65.60
2019-04-11T02:05:29.800Z,65.40
2019-04-11T02:07:59.166Z,66.10
2019-04-11T02:10:28.723Z,65.50
2019-04-11T02:12:59.647Z,66.40
2019-04-11T02:15:29.020Z,66.10
2019-04-11T02:18:01.234Z,66.10
2019-04-11T02:20:31.219Z,65.60
2019-04-11T02:23:02.560Z,65.50
2019-04-11T02:25:49.036Z,65.50
2019-04-11T02:28:20.275Z,65.90
2019-04-11T02:30:53.455Z,65.50
2019-04-11T02:33:24.269Z,66.20
2019-04-11T02:35:54.297Z,66.30
2019-04-11T02:38:24.560Z,67.30
2019-04-11T02:40:55.068Z,66.20
2019-04-11T02:43:26.003Z,66.50
2019-04-11T02:46:08.826Z,66.60
2019-04-11T02:48:28.471Z,66.00
2019-04-11T02:50:58.500Z,66.60
2019-04-11T02:53:30.020Z,66.00
2019-04-11T02:56:00.645Z,66.10
2019-04-11T02:58:31.845Z,66.60
2019-04-11T03:01:05.021Z,66.30
2019-04-11T03:03:34.115Z,66.90
2019-04-11T03:06:04.436Z,66.80
2019-04-11T03:08:36.292Z,66.70
2019-04-11T03:11:07.525Z,67.50
2019-04-11T03:13:38.122Z,66.50
2019-04-11T03:16:23.895Z,67.30
2019-04-11T03:18:57.403Z,67.20
2019-04-11T03:21:14.477Z,67.80
2019-04-11T03:23:41.879Z,68.00
2019-04-11T03:26:14.093Z,68.10
2019-04-11T03:28:47.400Z,67.50
2019-04-11T03:31:58.306Z,67.40
2019-04-11T03:34:53.645Z,67.40
2019-04-11T03:37:08.588Z,67.60
2019-04-11T03:39:11.422Z,68.00
2019-04-11T03:41:37.260Z,67.20
2019-04-11T03:44:01.926Z,68.00
2019-04-11T03:46:37.621Z,68.70
2019-04-11T03:49:03.942Z,67.70
2019-04-11T03:51:25.867Z,68.50
2019-04-11T03:53:56.853Z,67.90
2019-04-11T03:56:26.647Z,68.10
2019-04-11T03:58:57.798Z,67.90
2019-04-11T04:01:29.499Z,68.30
2019-04-11T04:04:00.618Z,67.50
2019-04-11T04:06:31.071Z,67.80
2019-04-11T04:09:02.580Z,68.10
2019-04-11T04:11:34.117Z,68.80
2019-04-11T04:14:15.003Z,68.70
2019-04-11T04:16:55.426Z,69.00
2019-04-11T04:19:32.829Z,69.60
2019-04-11T04:22:17.870Z,68.80
2019-04-11T04:24:49.202Z,69.20
2019-04-11T04:27:21.614Z,69.70
2019-04-11T04:29:54.908Z,70.40
2019-04-11T04:32:24.596Z,70.00
2019-04-11T04:34:53.280Z,69.60
2019-04-11T04:37:24.764Z,70.10
2019-04-11T04:40:16.280Z,69.90
2019-04-11T04:42:32.120Z,70.50
2019-04-11T04:44:58.306Z,69.70
2019-04-11T04:47:37.157Z,69.90
2019-04-11T04:49:59.344Z,69.90
2019-04-11T04:52:30.421Z,69.40
2019-04-11T04:55:02.109Z,70.20
2019-04-11T04:57:31.807Z,70.00
2019-04-11T05:00:04.574Z,70.30
2019-04-11T05:02:35.472Z,70.00
2019-04-11T05:05:07.026Z,69.30
2019-04-11T05:07:40.234Z,69.60
2019-04-11T05:10:08.870Z,70.00
2019-04-11T05:12:38.856Z,69.80
2019-04-11T05:15:10.025Z,69.90
2019-04-11T05:17:41.798Z,69.70
2019-04-11T05:20:11.937Z,70.10
2019-04-11T05:22:41.594Z,71.00
2019-04-11T05:25:11.083Z,70.40
2019-04-11T05:27:40.381Z,70.60
2019-04-11T05:30:11.154Z,70.00
2019-04-11T05:32:41.738Z,70.60
2019-04-11T05:35:11.659Z,69.60
2019-04-11T05:37:41.108Z,70.80
2019-04-11T05:40:10.731Z,71.00
2019-04-11T05:42:40.086Z,71.00
2019-04-11T05:45:16.929Z,72.10
2019-04-11T05:47:40.677Z,71.50
2019-04-11T05:50:13.717Z,71.80
2019-04-11T05:52:43.830Z,71.80
2019-04-11T05:55:15.475Z,71.60
2019-04-11T05:57:46.762Z,71.80
2019-04-11T06:00:19.363Z,72.40
2019-04-11T06:02:53.395Z,72.00
2019-04-11T06:05:27.742Z,71.50
2019-04-11T06:07:57.883Z,72.20
2019-04-11T06:10:30.214Z,71.30
2019-04-11T06:13:13.672Z,71.10
2019-04-11T06:15:44.595Z,71.20
2019-04-11T06:18:25.952Z,71.60
2019-04-11T06:20:48.568Z,71.70
2019-04-11T06:23:35.784Z,71.80
2019-04-11T06:26:10.862Z,71.10
2019-04-11T06:28:40.565Z,72.60
2019-04-11T06:31:26.417Z,73.00
2019-04-11T06:34:03.287Z,72.70
2019-04-11T06:36:43.407Z,72.90
2019-04-11T06:39:15.488Z,72.70
2019-04-11T06:41:56.897Z,72.70
2019-04-11T06:44:28.094Z,72.70
2019-04-11T06:47:05.391Z,72.20
2019-04-11T06:49:53.059Z,72.50
2019-04-11T06:52:24.440Z,72.40
2019-04-11T06:55:10.865Z,72.50
2019-04-11T06:57:48.087Z,72.60
2019-04-11T07:00:19.415Z,72.50
2019-04-11T07:02:57.118Z,72.00
2019-04-11T07:05:28.978Z,72.00
2019-04-11T07:08:00.307Z,72.80
2019-04-11T07:10:44.636Z,72.50
2019-04-11T07:13:16.390Z,72.40
2019-04-11T07:15:48.447Z,72.70
2019-04-11T07:18:35.560Z,72.30
2019-04-11T07:21:06.810Z,72.30
2019-04-11T07:23:55.442Z,72.60
2019-04-11T07:26:29.655Z,72.30
2019-04-11T07:29:13.065Z,72.40
2019-04-11T07:31:44.365Z,72.40
2019-04-11T07:34:35.100Z,71.90
2019-04-11T07:37:21.377Z,72.10
2019-04-11T07:40:09.453Z,72.50
2019-04-11T07:42:53.181Z,72.20
2019-04-11T07:45:25.338Z,72.00
2019-04-11T07:48:07.098Z,72.40
2019-04-11T07:50:36.735Z,72.40
2019-04-11T07:53:08.670Z,72.00
2019-04-11T07:55:39.767Z,72.50
2019-04-11T07:58:23.971Z,72.00
2019-04-11T08:01:08.297Z,72.10
2019-04-11T08:03:49.184Z,72.00
2019-04-11T08:06:26.537Z,71.90
2019-04-11T08:09:09.775Z,72.00
2019-04-11T08:11:40.723Z,72.10
2019-04-11T08:14:14.677Z,72.10
2019-04-11T08:16:53.333Z,71.80
2019-04-11T08:19:28.802Z,71.80
2019-04-11T08:22:16.934Z,71.70
2019-04-11T08:24:53.703Z,71.60
2019-04-11T08:27:48.541Z,71.50
2019-04-11T08:30:08.721Z,71.70
2019-04-11T08:32:40.077Z,71.70
2019-04-11T08:35:18.077Z,71.30
2019-04-11T08:37:58.085Z,72.50
2019-04-11T08:40:30.087Z,72.30
2019-04-11T08:43:10.909Z,71.60
2019-04-11T08:45:42.319Z,71.30
2019-04-11T08:48:13.010Z,71.30
2019-04-11T08:50:47.024Z,71.20
2019-04-11T08:53:18.602Z,71.30
2019-04-11T08:55:55.398Z,71.60
2019-04-11T08:58:22.644Z,71.40
2019-04-11T09:00:56.130Z,71.60
2019-04-11T09:03:41.988Z,71.10
2019-04-11T09:06:14.584Z,71.10
2019-04-11T09:08:51.683Z,71.40
2019-04-11T09:11:22.775Z,71.40
2019-04-11T09:14:11.981Z,70.90
2019-04-11T09:16:42.985Z,70.80
2019-04-11T09:19:30.666Z,70.00
2019-04-11T09:22:11.051Z,69.90
2019-04-11T09:24:43.104Z,71.00
2019-04-11T09:27:20.979Z,70.50
2019-04-11T09:30:04.468Z,70.10
2019-04-11T09:32:53.663Z,71.10
2019-04-11T09:35:33.722Z,70.20
2019-04-11T09:38:04.719Z,70.70
2019-04-11T09:40:50.591Z,70.60
2019-04-11T09:43:32.035Z,70.60
2019-04-11T09:46:18.567Z,69.40
2019-04-11T09:48:56.034Z,69.50
2019-04-11T09:51:29.113Z,69.80
2019-04-11T09:54:06.175Z,71.30
2019-04-11T09:56:40.463Z,70.50
2019-04-11T09:59:17.567Z,70.40
2019-04-11T10:01:54.680Z,68.60
2019-04-11T10:04:25.665Z,68.00
2019-04-11T10:07:13.205Z,67.10
2019-04-11T10:10:00.286Z,66.30
2019-04-11T10:12:40.669Z,67.40
2019-04-11T10:15:11.423Z,64.60
2019-04-11T10:17:58.964Z,66.70
2019-04-11T10:20:28.800Z,68.20
2019-04-11T10:23:01.418Z,65.00
2019-04-11T10:25:32.796Z,65.40
2019-04-11T10:28:19.600Z,66.40
2019-04-11T10:31:06.411Z,67.00
2019-04-11T10:33:55.466Z,66.90
2019-04-11T10:36:27.376Z,65.00
2019-04-11T10:39:15.276Z,64.60
2019-04-11T10:41:50.453Z,60.30
2019-04-11T10:44:21.562Z,61.30
2019-04-11T10:46:52.739Z,61.80
2019-04-11T10:49:30.359Z,64.00
2019-04-11T10:52:18.327Z,64.60
2019-04-11T10:55:05.256Z,59.50
2019-04-11T10:57:36.444Z,59.60
2019-04-11T11:00:18.842Z,61.30
2019-04-11T11:03:06.471Z,61.80
2019-04-11T11:05:38.698Z,62.40
2019-04-11T11:08:09.670Z,62.50
2019-04-11T11:10:40.031Z,61.60
2019-04-11T11:13:17.997Z,61.30
2019-04-11T11:15:49.822Z,59.70
2019-04-11T11:18:48.053Z,59.40
2019-04-11T11:21:03.808Z,60.60
2019-04-11T11:23:37.220Z,58.00
2019-04-11T11:26:19.825Z,59.70
2019-04-11T11:28:48.775Z,60.00
2019-04-11T11:31:22.871Z,62.10
2019-04-11T11:33:52.174Z,59.30
2019-04-11T11:36:37.735Z,58.80
2019-04-11T11:39:26.844Z,59.00
2019-04-11T11:42:14.558Z,60.60
2019-04-11T11:45:03.042Z,58.20
2019-04-11T11:47:51.595Z,58.40
2019-04-11T11:50:23.783Z,57.40
2019-04-11T11:53:13.044Z,57.80
2019-04-11T11:55:43.204Z,57.20
2019-04-11T11:58:30.226Z,58.80
2019-04-11T12:01:05.868Z,56.30
2019-04-11T12:03:46.654Z,57.10
2019-04-11T12:06:19.771Z,55.40
2019-04-11T12:09:06.872Z,55.50
2019-04-11T12:11:38.070Z,58.20
2019-04-11T12:14:27.598Z,55.80
2019-04-11T12:17:06.418Z,55.10
2019-04-11T12:19:47.628Z,54.70
2019-04-11T12:22:12.395Z,54.20
2019-04-11T12:24:50.280Z,54.00
2019-04-11T12:27:39.926Z,53.40
2019-04-11T12:30:13.457Z,52.50
2019-04-11T12:32:52.933Z,55.60
2019-04-11T12:35:28.932Z,55.40
2019-04-11T12:38:03.096Z,53.80
2019-04-11T12:40:43.380Z,54.40
2019-04-11T12:43:16.263Z,54.40
2019-04-11T12:45:50.274Z,54.30
2019-04-11T12:48:20.624Z,52.20
2019-04-11T12:50:54.677Z,51.90
2019-04-11T12:53:24.428Z,56.30
2019-04-11T12:56:04.243Z,55.30
2019-04-11T12:58:39.612Z,54.80
2019-04-11T13:01:24.544Z,54.60
2019-04-11T13:03:55.694Z,54.00
2019-04-11T13:06:35.275Z,56.10
2019-04-11T13:09:15.596Z,53.30
2019-04-11T13:11:46.631Z,53.20
2019-04-11T13:14:34.274Z,54.00
2019-04-11T13:17:21.760Z,55.30
2019-04-11T13:20:09.346Z,55.70
2019-04-11T13:22:38.804Z,53.90
2019-04-11T13:25:24.790Z,49.80
2019-04-11T13:27:55.826Z,52.10
2019-04-11T13:30:28.550Z,52.70
2019-04-11T13:32:59.538Z,54.40
2019-04-11T13:35:47.486Z,53.10
2019-04-11T13:38:27.736Z,51.80
2019-04-11T13:41:06.435Z,50.70
2019-04-11T13:43:37.430Z,51.40
2019-04-11T13:46:14.258Z,51.10
2019-04-11T13:48:45.431Z,49.50
2019-04-11T13:51:28.550Z,52.10
2019-04-11T13:54:16.027Z,54.00
2019-04-11T13:57:03.594Z,52.60
2019-04-11T13:59:34.540Z,52.70
2019-04-11T14:02:17.326Z,50.90
2019-04-11T14:04:54.592Z,51.90
2019-04-11T14:07:25.696Z,52.40
2019-04-11T14:09:56.346Z,53.70
2019-04-11T14:12:26.378Z,50.30
2019-04-11T14:14:57.550Z,51.20
2019-04-11T14:17:28.500Z,50.30
2019-04-11T14:20:28.683Z,53.50
2019-04-11T14:22:50.282Z,52.20
2019-04-11T14:25:31.417Z,52.40
2019-04-11T14:28:03.620Z,52.30
2019-04-11T14:30:34.684Z,50.30
2019-04-11T14:33:04.173Z,49.80
2019-04-11T14:35:44.428Z,49.30
2019-04-11T14:38:15.539Z,50.00
2019-04-11T14:40:46.629Z,49.30
2019-04-11T14:43:17.618Z,50.70
2019-04-11T14:45:54.980Z,51.90
2019-04-11T14:48:42.623Z,51.40
2019-04-11T14:51:16.911Z,48.50
2019-04-11T14:53:50.810Z,48.10
2019-04-11T14:56:26.951Z,50.10
2019-04-11T14:59:12.902Z,47.80
2019-04-11T15:01:46.432Z,50.10
2019-04-11T15:04:34.040Z,51.50
2019-04-11T15:07:05.074Z,50.50
2019-04-11T15:09:35.998Z,47.40
2019-04-11T15:12:17.621Z,51.20
2019-04-11T15:15:04.195Z,51.50
2019-04-11T15:17:35.166Z,51.60
2019-04-11T15:20:07.612Z,48.80
2019-04-11T15:22:44.329Z,49.80
2019-04-11T15:25:31.451Z,47.60
2019-04-11T15:28:07.828Z,47.50
2019-04-11T15:30:49.420Z,47.30
2019-04-11T15:33:23.754Z,48.00
2019-04-11T15:35:57.776Z,49.70
2019-04-11T15:38:43.710Z,48.00
2019-04-11T15:41:12.985Z,49.20
2019-04-11T15:43:49.745Z,50.50
2019-04-11T15:46:23.482Z,49.30
2019-04-11T15:49:20.519Z,48.70
2019-04-11T15:51:43.562Z,49.00
2019-04-11T15:54:14.487Z,48.80
2019-04-11T15:56:57.894Z,48.60
2019-04-11T15:59:38.245Z,47.10
2019-04-11T16:02:27.985Z,47.90
2019-04-11T16:05:02.863Z,47.00
2019-04-11T16:07:43.467Z,47.50
2019-04-11T16:10:13.977Z,47.40
2019-04-11T16:13:01.588Z,48.60
2019-04-11T16:15:38.468Z,47.80
2019-04-11T16:18:16.537Z,46.20
2019-04-11T16:20:50.905Z,48.20
2019-04-11T16:23:20.181Z,47.00
2019-04-11T16:25:51.414Z,46.60
2019-04-11T16:28:22.633Z,47.50
2019-04-11T16:30:56.166Z,48.10
2019-04-11T16:33:39.307Z,47.60
2019-04-11T16:36:10.447Z,46.70
2019-04-11T16:38:42.300Z,46.80
2019-04-11T16:41:31.414Z,47.50
2019-04-11T16:44:05.947Z,46.70
2019-04-11T16:46:55.547Z,47.80
2019-04-11T16:49:25.947Z,45.80
2019-04-11T16:51:55.287Z,47.30
2019-04-11T16:54:24.639Z,46.10
2019-04-11T16:56:53.977Z,46.30
2019-04-11T16:59:23.283Z,45.90
2019-04-11T17:01:53.814Z,47.20
2019-04-11T17:04:25.765Z,46.60
2019-04-11T17:07:10.081Z,45.90
2019-04-11T17:09:41.123Z,48.50
2019-04-11T17:12:10.439Z,48.60
2019-04-11T17:14:39.911Z,47.20
2019-04-11T17:17:15.221Z,45.90
2019-04-11T17:19:40.713Z,47.30
2019-04-11T17:22:10.073Z,46.20
2019-04-11T17:24:39.519Z,47.20
2019-04-11T17:27:08.809Z,46.50
2019-04-11T17:29:38.117Z,46.60
2019-04-11T17:32:07.484Z,47.10
2019-04-11T17:34:36.787Z,47.10
2019-04-11T17:37:06.094Z,47.80
2019-04-11T17:39:36.775Z,48.10
2019-04-11T17:42:07.055Z,48.10
2019-04-11T17:44:36.509Z,46.80
2019-04-11T17:47:05.851Z,46.40
2019-04-11T17:49:35.251Z,47.20
2019-04-11T17:52:06.143Z,48.50
2019-04-11T17:54:35.451Z,46.50
2019-04-11T17:57:04.982Z,47.80
2019-04-11T17:59:34.279Z,46.50
2019-04-11T18:02:05.239Z,46.40
2019-04-11T18:04:34.562Z,45.50
2019-04-11T18:07:03.921Z,45.80
2019-04-11T18:09:33.307Z,46.80
2019-04-11T18:12:02.595Z,46.40
2019-04-11T18:14:31.904Z,46.90
2019-04-11T18:17:03.803Z,47.00
2019-04-11T18:19:33.840Z,47.10
2019-04-11T18:22:08.224Z,47.00
2019-04-11T18:24:36.103Z,47.20
2019-04-11T18:27:05.495Z,47.10
2019-04-11T18:29:34.847Z,47.60
2019-04-11T18:32:04.237Z,47.60
2019-04-11T18:34:33.944Z,46.80
2019-04-11T18:37:03.371Z,47.10
2019-04-11T18:39:33.668Z,47.30
2019-04-11T18:42:03.753Z,47.40
2019-04-11T18:44:33.097Z,47.80
2019-04-11T18:47:02.530Z,47.80
2019-04-11T18:49:31.830Z,47.70
2019-04-11T18:52:01.181Z,47.80
2019-04-11T18:54:30.633Z,47.30
2019-04-11T18:57:00.013Z,48.60
2019-04-11T18:59:29.354Z,47.60
2019-04-11T19:01:59.861Z,48.20
2019-04-11T19:04:32.681Z,48.10
2019-04-11T19:07:00.226Z,48.30
2019-04-11T19:09:29.604Z,48.60
2019-04-11T19:11:59.231Z,48.50
2019-04-11T19:14:28.704Z,48.60
2019-04-11T19:16:58.066Z,48.90
2019-04-11T19:19:27.640Z,48.90
2019-04-11T19:21:58.864Z,49.10
2019-04-11T19:24:35.558Z,48.70
2019-04-11T19:26:59.271Z,48.80
2019-04-11T19:29:28.599Z,49.00
2019-04-11T19:31:57.911Z,49.20
2019-04-11T19:34:27.219Z,49.30
2019-04-11T19:36:56.583Z,49.10
2019-04-11T19:39:26.057Z,49.20
2019-04-11T19:41:55.431Z,49.30
2019-04-11T19:44:26.664Z,49.50
2019-04-11T19:46:55.963Z,49.40
2019-04-11T19:49:28.786Z,49.70
2019-04-11T19:51:58.604Z,49.70
2019-04-11T19:54:27.331Z,49.80
2019-04-11T19:57:01.045Z,49.70
2019-04-11T19:59:30.323Z,49.80
2019-04-11T20:01:59.628Z,50.10
2019-04-11T20:04:29.600Z,49.90
2019-04-11T20:06:59.935Z,50.00
2019-04-11T20:09:29.235Z,50.30
2019-04-11T20:12:00.688Z,50.20
2019-04-11T20:14:29.549Z,50.20
2019-04-11T20:16:58.923Z,50.20
2019-04-11T20:19:28.283Z,50.20
2019-04-11T20:21:57.644Z,50.20
2019-04-11T20:24:27.032Z,50.10
2019-04-11T20:26:56.412Z,50.00
2019-04-11T20:29:25.812Z,50.40
2019-04-11T20:31:55.844Z,50.60
2019-04-11T20:34:27.787Z,50.70
2019-04-11T20:36:56.151Z,50.80
2019-04-11T20:39:25.703Z,50.80
2019-04-11T20:41:55.009Z,50.80
2019-04-11T20:44:27.237Z,51.30
2019-04-11T20:46:55.379Z,51.30
2019-04-11T20:49:24.755Z,52.20
2019-04-11T20:51:54.119Z,52.40
2019-04-11T20:54:23.392Z,52.40
2019-04-11T20:56:52.678Z,52.70
2019-04-11T20:59:33.708Z,52.70
2019-04-11T21:01:53.639Z,52.70
2019-04-11T21:04:23.118Z,53.00
2019-04-11T21:06:54.191Z,53.20
2019-04-11T21:09:23.535Z,53.30
2019-04-11T21:11:52.886Z,53.50
2019-04-11T21:14:22.197Z,53.10
2019-04-11T21:16:51.490Z,53.10
2019-04-11T21:19:23.235Z,53.20
2019-04-11T21:21:53.296Z,53.30
2019-04-11T21:24:22.769Z,53.40
2019-04-11T21:26:52.131Z,53.40
2019-04-11T21:29:21.507Z,53.60
2019-04-11T21:31:51.150Z,53.30
2019-04-11T21:34:20.486Z,53.20
2019-04-11T21:36:49.852Z,53.20
2019-04-11T21:39:19.792Z,53.10
2019-04-11T21:41:49.153Z,53.00
2019-04-11T21:44:18.439Z,53.20
2019-04-11T21:46:49.295Z,53.10
2019-04-11T21:49:18.878Z,53.30
2019-04-11T21:51:48.351Z,53.20
2019-04-11T21:54:17.719Z,53.00
2019-04-11T21:56:49.478Z,52.90
2019-04-11T21:59:20.382Z,52.90
2019-04-11T22:01:49.158Z,53.00
2019-04-11T22:04:18.816Z,52.80
2019-04-11T22:06:49.866Z,52.90
2019-04-11T22:09:19.650Z,52.70
2019-04-11T22:11:49.067Z,52.70
2019-04-11T22:14:18.669Z,52.70
2019-04-11T22:16:48.009Z,52.60
2019-04-11T22:19:17.739Z,52.70
2019-04-11T22:21:47.044Z,52.60
2019-04-11T22:24:16.360Z,52.60
2019-04-11T22:26:50.164Z,52.90
2019-04-11T22:29:16.727Z,52.60
2019-04-11T22:31:46.349Z,52.60
2019-04-11T22:34:17.374Z,52.60
2019-04-11T22:36:46.914Z,52.70
2019-04-11T22:39:16.191Z,52.60
2019-04-11T22:41:45.521Z,52.70
2019-04-11T22:44:14.826Z,52.60
2019-04-11T22:46:44.122Z,52.70
2019-04-11T22:49:13.398Z,52.60
2019-04-11T22:51:43.579Z,52.80
2019-04-11T22:54:13.731Z,53.00
2019-04-11T22:56:43.567Z,53.00
2019-04-11T23:00:07.834Z,53.00
2019-04-11T23:02:47.377Z,53.70
2019-04-11T23:05:17.429Z,53.30
2019-04-11T23:07:48.448Z,53.90
2019-04-11T23:10:18.420Z,53.60
2019-04-11T23:12:47.834Z,53.70
2019-04-11T23:15:19.155Z,53.60
2019-04-11T23:17:48.476Z,53.40
2019-04-11T23:20:17.834Z,53.40
2019-04-11T23:22:47.524Z,53.20
2019-04-11T23:25:16.806Z,53.70
2019-04-11T23:27:46.363Z,54.20
2019-04-11T23:30:18.454Z,53.70
2019-04-11T23:32:50.849Z,53.70
2019-04-11T23:35:21.125Z,53.80
2019-04-11T23:37:51.951Z,53.60
2019-04-11T23:40:22.114Z,53.80
2019-04-11T23:42:51.490Z,53.60
2019-04-11T23:45:23.370Z,53.50
2019-04-11T23:47:54.000Z,53.60
2019-04-11T23:50:25.177Z,53.40
2019-04-11T23:52:57.101Z,53.50
2019-04-11T23:55:29.852Z,53.40
2019-04-11T23:58:01.101Z,53.30
